createdAt,value
2023-02-22T00:00:27.526Z,4.1
2023-02-22T00:05:27.167Z,4.1
2023-02-22T00:10:27.169Z,4.0
2023-02-22T00:15:27.610Z,4.0
2023-02-22T00:20:27.187Z,4.0
2023-02-22T00:25:27.161Z,4.0
2023-02-22T00:30:27.467Z,3.9
2023-02-22T00:35:27.013Z,3.9
2023-02-22T00:40:27.168Z,3.9
2023-02-22T00:45:27.200Z,3.9
2023-02-22T00:50:27.076Z,3.9
2023-02-22T00:55:27.139Z,3.9
2023-02-22T01:00:27.055Z,3.9
2023-02-22T01:05:27.237Z,3.9
2023-02-22T01:10:27.064Z,3.9
2023-02-22T01:15:27.040Z,3.9
2023-02-22T01:20:27.274Z,3.8
2023-02-22T01:25:27.037Z,3.8
2023-02-22T01:30:27.137Z,3.8
2023-02-22T01:35:27.824Z,3.7
2023-02-22T01:40:27.046Z,3.7
2023-02-22T01:45:26.899Z,3.7
2023-02-22T01:50:27.215Z,3.6
2023-02-22T02:00:27.053Z,3.5
2023-02-22T02:05:26.972Z,3.5
2023-02-22T02:10:27.162Z,3.4
2023-02-22T02:15:27.074Z,3.4
2023-02-22T02:20:27.224Z,3.3
2023-02-22T02:25:26.824Z,3.3
2023-02-22T02:30:26.995Z,3.3
2023-02-22T02:35:27.864Z,3.3
2023-02-22T02:40:26.940Z,3.2
2023-02-22T02:45:26.956Z,3.2
2023-02-22T02:50:27.068Z,3.1
2023-02-22T02:55:26.900Z,3.1
2023-02-22T03:00:26.896Z,3.1
2023-02-22T03:05:26.722Z,3.1
2023-02-22T03:10:26.853Z,3.1
2023-02-22T03:15:26.886Z,3.1
2023-02-22T03:20:26.944Z,3.1
2023-02-22T03:25:26.902Z,3.1
2023-02-22T03:30:26.936Z,3.0
2023-02-22T03:35:27.009Z,3.0
2023-02-22T03:40:26.780Z,3.0
2023-02-22T03:45:26.756Z,3.0
2023-02-22T03:50:26.867Z,2.9
2023-02-22T03:55:26.761Z,2.8
2023-02-22T04:00:26.687Z,2.8
2023-02-22T04:05:26.880Z,2.7
2023-02-22T04:10:26.669Z,2.6
2023-02-22T04:15:26.766Z,2.6
2023-02-22T04:20:26.835Z,2.5
2023-02-22T04:25:26.588Z,2.5
2023-02-22T04:30:26.770Z,2.5
2023-02-22T04:35:26.772Z,2.4
2023-02-22T04:40:26.592Z,2.3
2023-02-22T04:45:26.638Z,2.3
2023-02-22T04:50:26.834Z,2.2
2023-02-22T04:55:26.581Z,2.2
2023-02-22T05:00:26.601Z,2.2
2023-02-22T05:05:27.014Z,2.1
2023-02-22T05:10:26.515Z,2.1
2023-02-22T05:15:26.519Z,2.1
2023-02-22T05:20:26.862Z,2.1
2023-02-22T05:25:26.675Z,2.1
2023-02-22T05:30:26.695Z,2.1
2023-02-22T05:35:26.751Z,2.1
2023-02-22T05:40:26.632Z,2.1
2023-02-22T05:45:26.634Z,2.1
2023-02-22T05:50:26.703Z,2.0
2023-02-22T05:55:26.598Z,2.1
2023-02-22T06:00:26.582Z,2.1
2023-02-22T06:05:49.510Z,2.1
2023-02-22T06:10:26.431Z,2.1
2023-02-22T06:15:26.420Z,2.1
2023-02-22T06:20:26.434Z,2.2
2023-02-22T06:25:26.433Z,2.2
2023-02-22T06:30:26.712Z,2.2
2023-02-22T06:35:26.427Z,2.3
2023-02-22T06:40:27.197Z,2.4
2023-02-22T06:45:26.462Z,2.4
2023-02-22T06:50:26.420Z,2.5
2023-02-22T06:55:26.379Z,2.6
2023-02-22T07:00:26.460Z,2.7
2023-02-22T07:05:26.343Z,2.8
2023-02-22T07:10:27.436Z,2.9
2023-02-22T07:15:26.928Z,3.0
2023-02-22T07:20:26.344Z,3.1
2023-02-22T07:25:26.405Z,3.2
2023-02-22T07:30:26.721Z,3.3
2023-02-22T07:35:26.407Z,3.5
2023-02-22T07:40:26.295Z,3.7
2023-02-22T07:45:26.479Z,3.8
2023-02-22T07:50:26.347Z,4.0
2023-02-22T07:55:26.248Z,4.1
2023-02-22T08:00:27.024Z,4.3
2023-02-22T08:05:26.201Z,4.4
2023-02-22T08:10:26.266Z,4.5
2023-02-22T08:15:26.444Z,4.6
2023-02-22T08:20:26.390Z,4.7
2023-02-22T08:25:26.219Z,4.8
2023-02-22T08:30:26.220Z,4.9
2023-02-22T08:35:26.472Z,4.9
2023-02-22T08:40:26.228Z,4.9
2023-02-22T08:45:26.175Z,4.9
2023-02-22T08:50:26.156Z,4.9
2023-02-22T08:55:26.180Z,4.9
2023-02-22T09:00:26.526Z,5.0
2023-02-22T09:05:26.402Z,5.0
2023-02-22T09:10:26.097Z,5.0
2023-02-22T09:15:26.111Z,5.0
2023-02-22T09:20:26.096Z,5.0
2023-02-22T09:25:26.050Z,5.1
2023-02-22T09:30:26.316Z,5.1
2023-02-22T09:35:26.244Z,5.2
2023-02-22T09:45:26.654Z,5.3
2023-02-22T09:50:26.134Z,5.3
2023-02-22T09:55:26.136Z,5.3
2023-02-22T10:00:26.327Z,5.4
2023-02-22T10:05:26.173Z,5.4
2023-02-22T10:10:26.081Z,5.5
2023-02-22T10:15:26.323Z,5.6
2023-02-22T10:20:26.183Z,5.7
2023-02-22T10:25:26.245Z,5.7
2023-02-22T10:30:26.354Z,5.7
2023-02-22T10:35:26.332Z,5.8
2023-02-22T10:40:26.028Z,5.7
2023-02-22T10:45:26.404Z,5.7
2023-02-22T10:50:26.334Z,5.8
2023-02-22T10:55:25.992Z,5.8
2023-02-22T11:00:25.967Z,5.8
2023-02-22T11:05:25.985Z,5.9
2023-02-22T11:10:26.009Z,6.0
2023-02-22T11:15:26.169Z,6.1
2023-02-22T11:20:26.098Z,6.1
2023-02-22T11:25:25.978Z,6.1
2023-02-22T11:30:26.228Z,6.2
2023-02-22T11:35:25.941Z,6.3
2023-02-22T11:40:25.933Z,6.4
2023-02-22T11:45:26.158Z,6.4
2023-02-22T11:50:25.896Z,6.4
2023-02-22T11:55:41.181Z,6.5
2023-02-22T12:00:26.116Z,6.5
2023-02-22T12:05:25.951Z,6.6
2023-02-22T12:10:26.172Z,6.7
2023-02-22T12:15:25.951Z,6.7
2023-02-22T12:20:25.840Z,6.7
2023-02-22T12:25:25.825Z,6.8
2023-02-22T12:30:26.643Z,6.8
2023-02-22T12:35:25.804Z,6.8
2023-02-22T12:40:25.786Z,6.7
2023-02-22T12:45:26.063Z,6.7
2023-02-22T12:50:25.774Z,6.7
2023-02-22T12:55:25.862Z,6.7
2023-02-22T13:00:26.042Z,6.8
2023-02-22T13:05:26.178Z,6.8
2023-02-22T13:10:25.968Z,6.8
2023-02-22T13:15:25.722Z,6.7
2023-02-22T13:20:25.759Z,6.8
2023-02-22T13:25:25.838Z,6.8
2023-02-22T13:30:25.897Z,6.8
2023-02-22T13:35:25.686Z,6.7
2023-02-22T13:40:25.711Z,6.7
2023-02-22T13:45:25.944Z,6.6
2023-02-22T13:50:25.672Z,6.5
2023-02-22T13:55:25.882Z,6.5
2023-02-22T14:00:25.917Z,6.5
2023-02-22T14:05:25.798Z,6.6
2023-02-22T14:10:25.646Z,6.6
2023-02-22T14:15:30.181Z,6.6
2023-02-22T14:20:25.686Z,6.6
2023-02-22T14:25:28.417Z,6.6
2023-02-22T14:30:26.501Z,6.6
2023-02-22T14:35:30.114Z,6.5
2023-02-22T14:40:25.827Z,6.6
2023-02-22T14:45:26.891Z,6.6
2023-02-22T14:50:25.768Z,6.6
2023-02-22T14:55:25.625Z,6.5
2023-02-22T15:00:26.035Z,6.4
2023-02-22T15:05:25.560Z,6.4
2023-02-22T15:10:25.585Z,6.3
2023-02-22T15:15:25.709Z,6.2
2023-02-22T15:20:25.570Z,6.1
2023-02-22T15:25:25.462Z,5.9
2023-02-22T15:30:25.548Z,5.7
2023-02-22T15:35:25.418Z,5.6
2023-02-22T15:40:25.475Z,5.4
2023-02-22T15:45:26.135Z,5.3
2023-02-22T15:50:25.536Z,5.1
2023-02-22T15:55:25.844Z,4.9
2023-02-22T16:00:25.430Z,4.7
2023-02-22T16:05:25.397Z,4.5
2023-02-22T16:10:25.404Z,4.3
2023-02-22T16:15:25.582Z,4.1
2023-02-22T16:20:25.404Z,3.9
2023-02-22T16:25:25.364Z,3.7
2023-02-22T16:30:25.997Z,3.4
2023-02-22T16:35:26.197Z,3.1
2023-02-22T16:40:31.457Z,2.8
2023-02-22T16:45:25.352Z,2.7
2023-02-22T16:50:26.717Z,2.5
2023-02-22T16:55:25.272Z,2.4
2023-02-22T17:00:25.258Z,2.3
2023-02-22T17:05:25.918Z,2.2
2023-02-22T17:10:25.316Z,2.1
2023-02-22T17:15:25.342Z,1.9
2023-02-22T17:20:25.466Z,1.8
2023-02-22T17:25:25.434Z,1.7
2023-02-22T17:30:25.332Z,1.6
2023-02-22T17:35:25.794Z,1.5
2023-02-22T17:40:25.457Z,1.4
2023-02-22T17:45:25.493Z,1.4
2023-02-22T17:50:25.508Z,1.4
2023-02-22T17:55:25.298Z,1.4
2023-02-22T18:00:25.334Z,1.3
2023-02-22T18:05:25.976Z,1.3
2023-02-22T18:10:27.459Z,1.2
2023-02-22T18:15:25.141Z,1.2
2023-02-22T18:20:26.016Z,1.2
2023-02-22T18:25:25.505Z,1.1
2023-02-22T18:30:25.118Z,1.1
2023-02-22T18:35:25.283Z,1.1
2023-02-22T18:40:29.325Z,1.0
2023-02-22T18:45:27.678Z,1.0
2023-02-22T18:50:31.978Z,1.0
2023-02-22T18:55:31.972Z,1.0
2023-02-22T19:00:32.142Z,1.0
2023-02-22T19:05:31.964Z,1.0
2023-02-22T19:10:31.999Z,1.0
2023-02-22T19:15:32.142Z,0.9
2023-02-22T19:20:32.361Z,0.8
2023-02-22T19:25:32.047Z,0.7
2023-02-22T19:30:32.246Z,0.6
2023-02-22T19:35:31.911Z,0.6
2023-02-22T19:40:32.095Z,0.5
2023-02-22T19:45:32.085Z,0.4
2023-02-22T19:50:31.947Z,0.4
2023-02-22T19:55:39.670Z,0.3
2023-02-22T20:00:31.878Z,0.2
2023-02-22T20:05:32.914Z,0.1
2023-02-22T20:10:32.589Z,0.0
2023-02-22T20:15:31.819Z,-0.0
2023-02-22T20:20:31.864Z,-0.1
2023-02-22T20:25:32.426Z,-0.1
2023-02-22T20:30:32.141Z,-0.1
2023-02-22T20:35:31.779Z,-0.1
2023-02-22T20:40:32.335Z,-0.2
2023-02-22T20:45:32.052Z,-0.2
2023-02-22T20:50:31.792Z,-0.2
2023-02-22T20:55:32.616Z,-0.2
2023-02-22T21:00:31.774Z,-0.2
2023-02-22T21:05:33.388Z,-0.2
2023-02-22T21:10:31.971Z,-0.2
2023-02-22T21:15:31.781Z,-0.2
2023-02-22T21:20:31.771Z,-0.2
2023-02-22T21:25:31.834Z,-0.2
2023-02-22T21:30:32.168Z,-0.2
2023-02-22T21:35:31.821Z,-0.3
2023-02-22T21:40:31.664Z,-0.3
2023-02-22T21:45:31.678Z,-0.3
2023-02-22T21:50:31.698Z,-0.3
2023-02-22T21:55:31.771Z,-0.3
2023-02-22T22:00:31.701Z,-0.4
2023-02-22T22:05:31.737Z,-0.4
2023-02-22T22:10:31.885Z,-0.4
2023-02-22T22:15:31.830Z,-0.4
2023-02-22T22:20:31.570Z,-0.4
2023-02-22T22:25:31.639Z,-0.4
2023-02-22T22:30:31.787Z,-0.4
2023-02-22T22:35:31.609Z,-0.4
2023-02-22T22:40:31.587Z,-0.3
2023-02-22T22:45:31.772Z,-0.3
2023-02-22T22:50:31.651Z,-0.3
2023-02-22T22:55:31.522Z,-0.2
2023-02-22T23:00:31.723Z,-0.2
2023-02-22T23:05:31.524Z,-0.2
2023-02-22T23:10:31.520Z,-0.2
2023-02-22T23:15:31.702Z,-0.2
2023-02-22T23:20:31.471Z,-0.2
2023-02-22T23:25:31.491Z,-0.3
2023-02-22T23:30:31.743Z,-0.3
2023-02-22T23:35:31.485Z,-0.3
2023-02-22T23:40:32.596Z,-0.3
2023-02-22T23:45:31.547Z,-0.4
2023-02-22T23:50:31.452Z,-0.4
2023-02-22T23:55:31.441Z,-0.4
